sensor_id;sensor_type;location;lat;lon;timestamp;pressure;altitude;pressure_sealevel;temperature;humidity
71573;BME280;59408;51.032;9.410;2023-05-25T00:01:47;99823.47;;;4.18;100.00
71573;BME280;59408;51.032;9.410;2023-05-25T00:04:14;99825.09;;;4.14;100.00
71573;BME280;59408;51.032;9.410;2023-05-25T00:06:42;99820.78;;;4.13;100.00
71573;BME280;59408;51.032;9.410;2023-05-25T00:09:08;99818.91;;;4.09;100.00
71573;BME280;59408;51.032;9.410;2023-05-25T00:11:35;99818.94;;;4.04;100.00
71573;BME280;59408;51.032;9.410;2023-05-25T00:14:02;99820.56;;;4.00;100.00
71573;BME280;59408;51.032;9.410;2023-05-25T00:16:29;99828.69;;;4.00;100.00
71573;BME280;59408;51.032;9.410;2023-05-25T00:18:56;99824.91;;;3.96;100.00
71573;BME280;59408;51.032;9.410;2023-05-25T00:21:23;99826.81;;;3.90;100.00
71573;BME280;59408;51.032;9.410;2023-05-25T00:23:50;99824.13;;;3.90;100.00
71573;BME280;59408;51.032;9.410;2023-05-25T00:26:17;99827.09;;;3.88;100.00
71573;BME280;59408;51.032;9.410;2023-05-25T00:28:44;99828.72;;;3.84;100.00
71573;BME280;59408;51.032;9.410;2023-05-25T00:31:10;99818.50;;;3.81;100.00
71573;BME280;59408;51.032;9.410;2023-05-25T00:33:37;99818.22;;;3.78;100.00
71573;BME280;59408;51.032;9.410;2023-05-25T00:36:04;99817.69;;;3.76;100.00
71573;BME280;59408;51.032;9.410;2023-05-25T00:38:31;99811.22;;;3.72;100.00
71573;BME280;59408;51.032;9.410;2023-05-25T00:40:59;99806.38;;;3.69;100.00
71573;BME280;59408;51.032;9.410;2023-05-25T00:43:25;99810.97;;;3.68;100.00
71573;BME280;59408;51.032;9.410;2023-05-25T00:45:52;99820.16;;;3.62;100.00
71573;BME280;59408;51.032;9.410;2023-05-25T00:48:19;99814.50;;;3.59;100.00
71573;BME280;59408;51.032;9.410;2023-05-25T00:50:46;99814.50;;;3.54;100.00
71573;BME280;59408;51.032;9.410;2023-05-25T00:53:13;99818.00;;;3.49;100.00
71573;BME280;59408;51.032;9.410;2023-05-25T00:55:43;99808.88;;;3.45;100.00
71573;BME280;59408;51.032;9.410;2023-05-25T00:58:13;99811.56;;;3.45;100.00
71573;BME280;59408;51.032;9.410;2023-05-25T01:00:44;99814.53;;;3.43;100.00
71573;BME280;59408;51.032;9.410;2023-05-25T01:03:13;99806.72;;;3.42;100.00
71573;BME280;59408;51.032;9.410;2023-05-25T01:05:41;99808.59;;;3.41;100.00
71573;BME280;59408;51.032;9.410;2023-05-25T01:08:10;99808.63;;;3.36;100.00
71573;BME280;59408;51.032;9.410;2023-05-25T01:10:37;99805.13;;;3.36;100.00
71573;BME280;59408;51.032;9.410;2023-05-25T01:13:06;99804.03;;;3.32;100.00
71573;BME280;59408;51.032;9.410;2023-05-25T01:15:36;99801.88;;;3.29;100.00
71573;BME280;59408;51.032;9.410;2023-05-25T01:18:03;99805.94;;;3.26;100.00
71573;BME280;59408;51.032;9.410;2023-05-25T01:20:29;99795.41;;;3.25;100.00
71573;BME280;59408;51.032;9.410;2023-05-25T01:23:00;99804.31;;;3.25;100.00
71573;BME280;59408;51.032;9.410;2023-05-25T01:25:35;99797.56;;;3.23;100.00
71573;BME280;59408;51.032;9.410;2023-05-25T01:28:05;99797.28;;;3.19;100.00
71573;BME280;59408;51.032;9.410;2023-05-25T01:30:34;99805.69;;;3.18;100.00
71573;BME280;59408;51.032;9.410;2023-05-25T01:33:02;99802.69;;;3.14;100.00
71573;BME280;59408;51.032;9.410;2023-05-25T01:35:30;99798.66;;;3.11;100.00
71573;BME280;59408;51.032;9.410;2023-05-25T01:37:58;99800.28;;;3.07;100.00
71573;BME280;59408;51.032;9.410;2023-05-25T01:40:26;99807.56;;;3.07;100.00
71573;BME280;59408;51.032;9.410;2023-05-25T01:42:53;99810.00;;;3.08;100.00
71573;BME280;59408;51.032;9.410;2023-05-25T01:45:19;99811.34;;;3.06;100.00
71573;BME280;59408;51.032;9.410;2023-05-25T01:47:53;99810.53;;;3.05;100.00
71573;BME280;59408;51.032;9.410;2023-05-25T01:50:26;99818.34;;;3.07;100.00
71573;BME280;59408;51.032;9.410;2023-05-25T01:53:01;99815.38;;;3.03;100.00
71573;BME280;59408;51.032;9.410;2023-05-25T01:55:32;99818.06;;;3.03;100.00
71573;BME280;59408;51.032;9.410;2023-05-25T01:58:01;99814.81;;;3.01;100.00
71573;BME280;59408;51.032;9.410;2023-05-25T02:00:29;99798.66;;;3.01;100.00
71573;BME280;59408;51.032;9.410;2023-05-25T02:02:57;99801.91;;;3.03;100.00
71573;BME280;59408;51.032;9.410;2023-05-25T02:05:23;99807.28;;;3.03;100.00
71573;BME280;59408;51.032;9.410;2023-05-25T02:07:51;99809.44;;;3.01;100.00
71573;BME280;59408;51.032;9.410;2023-05-25T02:10:19;99804.59;;;2.98;100.00
71573;BME280;59408;51.032;9.410;2023-05-25T02:12:45;99803.25;;;2.96;100.00
71573;BME280;59408;51.032;9.410;2023-05-25T02:15:14;99794.63;;;2.94;100.00
71573;BME280;59408;51.032;9.410;2023-05-25T02:17:40;99784.41;;;2.91;100.00
71573;BME280;59408;51.032;9.410;2023-05-25T02:20:08;99798.41;;;2.88;100.00
71573;BME280;59408;51.032;9.410;2023-05-25T02:22:35;99790.84;;;2.85;100.00
71573;BME280;59408;51.032;9.410;2023-05-25T02:25:02;99789.78;;;2.81;100.00
71573;BME280;59408;51.032;9.410;2023-05-25T02:27:29;99793.53;;;2.74;100.00
71573;BME280;59408;51.032;9.410;2023-05-25T02:29:56;99786.28;;;2.70;100.00
71573;BME280;59408;51.032;9.410;2023-05-25T02:32:22;99786.53;;;2.68;100.00
71573;BME280;59408;51.032;9.410;2023-05-25T02:34:49;99786.81;;;2.67;100.00
71573;BME280;59408;51.032;9.410;2023-05-25T02:37:16;99785.47;;;2.69;100.00
71573;BME280;59408;51.032;9.410;2023-05-25T02:39:42;99784.66;;;2.69;100.00
71573;BME280;59408;51.032;9.410;2023-05-25T02:42:09;99788.16;;;2.69;100.00
71573;BME280;59408;51.032;9.410;2023-05-25T02:44:37;99785.47;;;2.69;100.00
71573;BME280;59408;51.032;9.410;2023-05-25T02:47:04;99795.97;;;2.66;100.00
71573;BME280;59408;51.032;9.410;2023-05-25T02:49:30;99803.50;;;2.69;100.00
71573;BME280;59408;51.032;9.410;2023-05-25T02:51:57;99796.78;;;2.76;100.00
71573;BME280;59408;51.032;9.410;2023-05-25T02:54:23;99796.78;;;2.82;100.00
71573;BME280;59408;51.032;9.410;2023-05-25T02:56:50;99800.03;;;2.89;100.00
71573;BME280;59408;51.032;9.410;2023-05-25T02:59:17;99797.84;;;2.96;100.00
71573;BME280;59408;51.032;9.410;2023-05-25T03:01:45;99806.47;;;3.03;100.00
71573;BME280;59408;51.032;9.410;2023-05-25T03:04:11;99799.22;;;3.08;100.00
71573;BME280;59408;51.032;9.410;2023-05-25T03:06:38;99802.16;;;3.12;100.00
71573;BME280;59408;51.032;9.410;2023-05-25T03:09:04;99802.69;;;3.19;100.00
71573;BME280;59408;51.032;9.410;2023-05-25T03:11:31;99795.97;;;3.27;100.00
71573;BME280;59408;51.032;9.410;2023-05-25T03:13:58;99813.19;;;3.36;100.00
71573;BME280;59408;51.032;9.410;2023-05-25T03:16:24;99813.72;;;3.38;100.00
71573;BME280;59408;51.032;9.410;2023-05-25T03:18:53;99810.47;;;3.41;100.00
71573;BME280;59408;51.032;9.410;2023-05-25T03:21:19;99817.47;;;3.47;100.00
71573;BME280;59408;51.032;9.410;2023-05-25T03:23:46;99826.09;;;3.49;100.00
71573;BME280;59408;51.032;9.410;2023-05-25T03:26:12;99831.75;;;3.47;100.00
71573;BME280;59408;51.032;9.410;2023-05-25T03:28:39;99827.44;;;3.46;100.00
71573;BME280;59408;51.032;9.410;2023-05-25T03:31:06;99828.00;;;3.48;100.00
71573;BME280;59408;51.032;9.410;2023-05-25T03:33:32;99826.94;;;3.55;100.00
71573;BME280;59408;51.032;9.410;2023-05-25T03:36:00;99830.13;;;3.57;100.00
71573;BME280;59408;51.032;9.410;2023-05-25T03:38:27;99829.31;;;3.61;100.00
71573;BME280;59408;51.032;9.410;2023-05-25T03:40:53;99828.25;;;3.62;100.00
71573;BME280;59408;51.032;9.410;2023-05-25T03:43:20;99830.91;;;3.67;100.00
71573;BME280;59408;51.032;9.410;2023-05-25T03:45:46;99838.22;;;3.67;100.00
71573;BME280;59408;51.032;9.410;2023-05-25T03:48:13;99841.41;;;3.74;100.00
71573;BME280;59408;51.032;9.410;2023-05-25T03:50:40;99832.25;;;3.80;100.00
71573;BME280;59408;51.032;9.410;2023-05-25T03:53:08;99832.50;;;3.88;100.00
71573;BME280;59408;51.032;9.410;2023-05-25T03:55:34;99831.09;;;3.96;100.00
71573;BME280;59408;51.032;9.410;2023-05-25T03:58:01;99828.13;;;3.98;100.00
71573;BME280;59408;51.032;9.410;2023-05-25T04:00:27;99835.38;;;4.02;100.00
71573;BME280;59408;51.032;9.410;2023-05-25T04:02:54;99827.28;;;4.02;100.00
71573;BME280;59408;51.032;9.410;2023-05-25T04:05:21;99822.97;;;4.01;100.00
71573;BME280;59408;51.032;9.410;2023-05-25T04:07:47;99833.50;;;4.03;100.00
71573;BME280;59408;51.032;9.410;2023-05-25T04:10:15;99836.75;;;4.05;100.00
71573;BME280;59408;51.032;9.410;2023-05-25T04:12:42;99841.03;;;4.11;100.00
71573;BME280;59408;51.032;9.410;2023-05-25T04:15:09;99835.34;;;4.17;100.00
71573;BME280;59408;51.032;9.410;2023-05-25T04:17:35;99833.47;;;4.18;100.00
71573;BME280;59408;51.032;9.410;2023-05-25T04:20:06;99839.66;;;4.18;100.00
71573;BME280;59408;51.032;9.410;2023-05-25T04:22:33;99845.34;;;4.17;100.00
71573;BME280;59408;51.032;9.410;2023-05-25T04:24:59;99842.38;;;4.18;100.00
71573;BME280;59408;51.032;9.410;2023-05-25T04:27:27;99842.34;;;4.23;100.00
71573;BME280;59408;51.032;9.410;2023-05-25T04:29:54;99844.19;;;4.28;100.00
71573;BME280;59408;51.032;9.410;2023-05-25T04:32:20;99855.50;;;4.35;100.00
71573;BME280;59408;51.032;9.410;2023-05-25T04:34:47;99860.88;;;4.40;100.00
71573;BME280;59408;51.032;9.410;2023-05-25T04:37:13;99862.19;;;4.48;100.00
71573;BME280;59408;51.032;9.410;2023-05-25T04:39:40;99862.41;;;4.56;100.00
71573;BME280;59408;51.032;9.410;2023-05-25T04:42:07;99871.31;;;4.62;100.00
71573;BME280;59408;51.032;9.410;2023-05-25T04:44:35;99872.88;;;4.68;100.00
71573;BME280;59408;51.032;9.410;2023-05-25T04:47:02;99888.78;;;4.80;100.00
71573;BME280;59408;51.032;9.410;2023-05-25T04:49:28;99875.22;;;4.90;100.00
71573;BME280;59408;51.032;9.410;2023-05-25T04:51:55;99887.63;;;4.96;100.00
71573;BME280;59408;51.032;9.410;2023-05-25T04:54:21;99888.63;;;5.05;100.00
71573;BME280;59408;51.032;9.410;2023-05-25T04:56:48;99895.06;;;5.14;100.00
71573;BME280;59408;51.032;9.410;2023-05-25T04:59:15;99888.19;;;5.27;100.00
71573;BME280;59408;51.032;9.410;2023-05-25T05:01:43;99892.41;;;5.38;100.00
71573;BME280;59408;51.032;9.410;2023-05-25T05:04:10;99894.47;;;5.51;100.00
71573;BME280;59408;51.032;9.410;2023-05-25T05:06:36;99897.31;;;5.65;100.00
71573;BME280;59408;51.032;9.410;2023-05-25T05:09:03;99901.03;;;5.74;100.00
71573;BME280;59408;51.032;9.410;2023-05-25T05:11:30;99910.63;;;5.90;100.00
71573;BME280;59408;51.032;9.410;2023-05-25T05:13:56;99900.69;;;6.09;100.00
71573;BME280;59408;51.032;9.410;2023-05-25T05:16:23;99906.44;;;6.27;100.00
71573;BME280;59408;51.032;9.410;2023-05-25T05:18:51;99907.16;;;6.32;100.00
71573;BME280;59408;51.032;9.410;2023-05-25T05:21:17;99908.66;;;6.43;100.00
71573;BME280;59408;51.032;9.410;2023-05-25T05:23:46;99905.78;;;6.35;100.00
71573;BME280;59408;51.032;9.410;2023-05-25T05:26:13;99914.31;;;6.47;100.00
71573;BME280;59408;51.032;9.410;2023-05-25T05:28:39;99914.47;;;6.74;100.00
71573;BME280;59408;51.032;9.410;2023-05-25T05:31:06;99911.06;;;6.87;100.00
71573;BME280;59408;51.032;9.410;2023-05-25T05:33:33;99905.50;;;6.98;100.00
71573;BME280;59408;51.032;9.410;2023-05-25T05:36:01;99910.81;;;7.21;100.00
71573;BME280;59408;51.032;9.410;2023-05-25T05:38:27;99906.88;;;7.33;100.00
71573;BME280;59408;51.032;9.410;2023-05-25T05:40:54;99904.19;;;7.33;100.00
71573;BME280;59408;51.032;9.410;2023-05-25T05:43:21;99907.59;;;7.38;100.00
71573;BME280;59408;51.032;9.410;2023-05-25T05:45:47;99912.38;;;7.46;100.00
71573;BME280;59408;51.032;9.410;2023-05-25T05:48:14;99913.44;;;7.64;100.00
71573;BME280;59408;51.032;9.410;2023-05-25T05:50:41;99915.66;;;7.76;100.00
71573;BME280;59408;51.032;9.410;2023-05-25T05:53:09;99926.88;;;7.88;100.00
71573;BME280;59408;51.032;9.410;2023-05-25T05:55:36;99913.09;;;7.98;100.00
71573;BME280;59408;51.032;9.410;2023-05-25T05:58:02;99917.94;;;8.15;100.00
71573;BME280;59408;51.032;9.410;2023-05-25T06:00:29;99922.69;;;8.23;98.72
71573;BME280;59408;51.032;9.410;2023-05-25T06:02:56;99922.38;;;8.38;99.94
71573;BME280;59408;51.032;9.410;2023-05-25T06:05:23;99928.00;;;8.69;98.54
71573;BME280;59408;51.032;9.410;2023-05-25T06:07:49;99927.84;;;9.01;97.67
71573;BME280;59408;51.032;9.410;2023-05-25T06:10:17;99931.56;;;9.19;95.93
71573;BME280;59408;51.032;9.410;2023-05-25T06:12:44;99934.66;;;9.26;96.74
71573;BME280;59408;51.032;9.410;2023-05-25T06:15:11;99943.94;;;9.47;96.12
71573;BME280;59408;51.032;9.410;2023-05-25T06:17:37;99940.09;;;9.48;95.58
71573;BME280;59408;51.032;9.410;2023-05-25T06:20:05;99944.50;;;9.80;95.17
71573;BME280;59408;51.032;9.410;2023-05-25T06:22:32;99942.63;;;9.90;92.72
71573;BME280;59408;51.032;9.410;2023-05-25T06:24:58;99953.66;;;10.15;93.89
71573;BME280;59408;51.032;9.410;2023-05-25T06:27:27;99936.88;;;10.31;93.14
71573;BME280;59408;51.032;9.410;2023-05-25T06:29:54;99947.19;;;10.42;90.83
71573;BME280;59408;51.032;9.410;2023-05-25T06:32:20;99938.91;;;10.56;93.28
71573;BME280;59408;51.032;9.410;2023-05-25T06:34:47;99957.69;;;10.66;92.25
71573;BME280;59408;51.032;9.410;2023-05-25T06:37:14;99955.03;;;10.75;91.22
71573;BME280;59408;51.032;9.410;2023-05-25T06:39:40;99947.50;;;10.80;89.42
71573;BME280;59408;51.032;9.410;2023-05-25T06:42:07;99961.78;;;10.86;89.49
71573;BME280;59408;51.032;9.410;2023-05-25T06:44:35;99964.69;;;10.89;89.76
71573;BME280;59408;51.032;9.410;2023-05-25T06:47:02;99960.69;;;10.87;87.94
71573;BME280;59408;51.032;9.410;2023-05-25T06:49:29;99959.88;;;10.86;85.89
71573;BME280;59408;51.032;9.410;2023-05-25T06:51:55;99957.47;;;11.02;89.13
71573;BME280;59408;51.032;9.410;2023-05-25T06:54:22;99964.09;;;11.18;89.56
71573;BME280;59408;51.032;9.410;2023-05-25T06:56:49;99962.03;;;11.32;86.35
71573;BME280;59408;51.032;9.410;2023-05-25T06:59:15;99973.56;;;11.21;86.33
71573;BME280;59408;51.032;9.410;2023-05-25T07:01:44;99967.97;;;11.17;86.36
71573;BME280;59408;51.032;9.410;2023-05-25T07:04:11;99957.53;;;11.28;86.07
71573;BME280;59408;51.032;9.410;2023-05-25T07:06:37;99968.78;;;11.35;88.27
71573;BME280;59408;51.032;9.410;2023-05-25T07:09:04;99964.13;;;11.44;87.69
71573;BME280;59408;51.032;9.410;2023-05-25T07:11:31;99974.72;;;11.46;87.11
71573;BME280;59408;51.032;9.410;2023-05-25T07:13:57;99971.81;;;11.33;88.92
71573;BME280;59408;51.032;9.410;2023-05-25T07:16:24;99963.00;;;11.54;86.69
71573;BME280;59408;51.032;9.410;2023-05-25T07:18:52;99961.84;;;11.72;85.23
71573;BME280;59408;51.032;9.410;2023-05-25T07:21:18;99963.75;;;11.89;85.41
71573;BME280;59408;51.032;9.410;2023-05-25T07:23:45;99968.41;;;11.88;85.41
71573;BME280;59408;51.032;9.410;2023-05-25T07:26:12;99961.03;;;11.80;84.51
71573;BME280;59408;51.032;9.410;2023-05-25T07:28:38;99955.06;;;11.87;84.39
71573;BME280;59408;51.032;9.410;2023-05-25T07:31:05;99960.38;;;11.92;83.69
71573;BME280;59408;51.032;9.410;2023-05-25T07:33:32;99961.69;;;11.68;83.68
71573;BME280;59408;51.032;9.410;2023-05-25T07:35:59;99960.53;;;11.78;83.64
71573;BME280;59408;51.032;9.410;2023-05-25T07:38:26;99968.06;;;11.98;82.84
71573;BME280;59408;51.032;9.410;2023-05-25T07:40:53;99963.25;;;11.95;81.64
71573;BME280;59408;51.032;9.410;2023-05-25T07:43:19;99970.97;;;11.93;82.33
71573;BME280;59408;51.032;9.410;2023-05-25T07:45:46;99969.78;;;12.20;80.97
71573;BME280;59408;51.032;9.410;2023-05-25T07:48:13;99964.69;;;12.19;79.79
71573;BME280;59408;51.032;9.410;2023-05-25T07:50:39;99970.78;;;12.07;81.13
71573;BME280;59408;51.032;9.410;2023-05-25T07:53:07;99963.56;;;12.20;81.68
71573;BME280;59408;51.032;9.410;2023-05-25T07:55:34;99967.72;;;12.26;82.52
71573;BME280;59408;51.032;9.410;2023-05-25T07:58:00;99971.91;;;12.15;80.94
71573;BME280;59408;51.032;9.410;2023-05-25T08:00:27;99971.81;;;12.40;81.44
71573;BME280;59408;51.032;9.410;2023-05-25T08:02:54;99971.66;;;12.45;82.68
71573;BME280;59408;51.032;9.410;2023-05-25T08:05:21;99972.63;;;12.79;79.23
71573;BME280;59408;51.032;9.410;2023-05-25T08:07:48;99989.59;;;12.93;78.21
71573;BME280;59408;51.032;9.410;2023-05-25T08:10:16;99978.19;;;13.12;77.71
71573;BME280;59408;51.032;9.410;2023-05-25T08:12:42;99980.50;;;13.10;77.52
71573;BME280;59408;51.032;9.410;2023-05-25T08:15:16;99984.84;;;13.11;78.12
71573;BME280;59408;51.032;9.410;2023-05-25T08:17:42;99979.00;;;13.12;78.52
71573;BME280;59408;51.032;9.410;2023-05-25T08:20:10;99979.00;;;13.12;78.80
71573;BME280;59408;51.032;9.410;2023-05-25T08:22:37;99982.63;;;13.25;77.79
71573;BME280;59408;51.032;9.410;2023-05-25T08:25:04;99984.75;;;12.69;76.43
71573;BME280;59408;51.032;9.410;2023-05-25T08:27:32;99993.78;;;12.23;78.93
71573;BME280;59408;51.032;9.410;2023-05-25T08:30:02;99994.38;;;12.37;79.57
71573;BME280;59408;51.032;9.410;2023-05-25T08:32:28;99995.69;;;12.23;78.53
71573;BME280;59408;51.032;9.410;2023-05-25T08:34:55;99986.16;;;12.46;78.64
71573;BME280;59408;51.032;9.410;2023-05-25T08:37:21;99987.78;;;13.27;77.68
71573;BME280;59408;51.032;9.410;2023-05-25T08:39:48;99981.13;;;14.11;76.19
71573;BME280;59408;51.032;9.410;2023-05-25T08:42:15;99982.47;;;14.86;73.79
71573;BME280;59408;51.032;9.410;2023-05-25T08:44:43;99986.41;;;15.37;72.29
71573;BME280;59408;51.032;9.410;2023-05-25T08:47:10;99978.25;;;16.09;67.83
71573;BME280;59408;51.032;9.410;2023-05-25T08:49:38;99980.59;;;17.01;69.83
71573;BME280;59408;51.032;9.410;2023-05-25T08:52:08;99985.47;;;16.61;63.76
71573;BME280;59408;51.032;9.410;2023-05-25T08:54:36;99975.78;;;16.35;64.13
71573;BME280;59408;51.032;9.410;2023-05-25T08:57:08;99982.84;;;16.05;66.79
71573;BME280;59408;51.032;9.410;2023-05-25T08:59:37;99980.09;;;16.05;66.94
71573;BME280;59408;51.032;9.410;2023-05-25T09:02:18;99983.13;;;16.15;67.54
71573;BME280;59408;51.032;9.410;2023-05-25T09:04:46;99981.31;;;15.92;63.69
71573;BME280;59408;51.032;9.410;2023-05-25T09:07:13;99981.06;;;16.56;67.80
71573;BME280;59408;51.032;9.410;2023-05-25T09:09:41;99983.34;;;17.01;64.46
71573;BME280;59408;51.032;9.410;2023-05-25T09:12:08;99989.25;;;17.19;66.24
71573;BME280;59408;51.032;9.410;2023-05-25T09:14:35;99989.13;;;16.96;63.23
71573;BME280;59408;51.032;9.410;2023-05-25T09:17:02;99986.19;;;16.42;62.64
71573;BME280;59408;51.032;9.410;2023-05-25T09:19:30;99985.22;;;16.97;67.61
71573;BME280;59408;51.032;9.410;2023-05-25T09:21:59;99981.69;;;16.81;64.94
71573;BME280;59408;51.032;9.410;2023-05-25T09:24:41;99989.72;;;16.27;62.75
71573;BME280;59408;51.032;9.410;2023-05-25T09:27:10;99997.91;;;15.95;64.31
71573;BME280;59408;51.032;9.410;2023-05-25T09:29:37;99998.47;;;15.73;65.14
71573;BME280;59408;51.032;9.410;2023-05-25T09:32:04;99998.81;;;15.59;66.74
71573;BME280;59408;51.032;9.410;2023-05-25T09:34:32;99997.03;;;15.91;65.78
71573;BME280;59408;51.032;9.410;2023-05-25T09:36:58;100006.28;;;15.99;64.63
71573;BME280;59408;51.032;9.410;2023-05-25T09:39:26;99987.50;;;16.32;63.63
71573;BME280;59408;51.032;9.410;2023-05-25T09:41:52;99998.22;;;16.81;62.75
71573;BME280;59408;51.032;9.410;2023-05-25T09:44:19;99997.34;;;16.17;64.25
71573;BME280;59408;51.032;9.410;2023-05-25T09:46:46;100004.97;;;16.08;63.36
71573;BME280;59408;51.032;9.410;2023-05-25T09:49:12;100001.47;;;15.96;65.34
71573;BME280;59408;51.032;9.410;2023-05-25T09:51:40;100006.97;;;15.96;65.24
71573;BME280;59408;51.032;9.410;2023-05-25T09:54:08;100001.16;;;15.85;65.86
71573;BME280;59408;51.032;9.410;2023-05-25T09:56:35;100000.78;;;15.59;66.84
71573;BME280;59408;51.032;9.410;2023-05-25T09:59:02;99992.91;;;15.85;65.99
71573;BME280;59408;51.032;9.410;2023-05-25T10:01:30;99993.47;;;16.34;63.46
71573;BME280;59408;51.032;9.410;2023-05-25T10:03:57;100007.28;;;16.81;60.53
71573;BME280;59408;51.032;9.410;2023-05-25T10:06:30;99997.38;;;16.96;61.24
71573;BME280;59408;51.032;9.410;2023-05-25T10:08:59;100000.81;;;17.59;63.78
71573;BME280;59408;51.032;9.410;2023-05-25T10:11:27;100007.34;;;18.09;61.91
71573;BME280;59408;51.032;9.410;2023-05-25T10:13:55;100003.63;;;18.21;58.43
71573;BME280;59408;51.032;9.410;2023-05-25T10:16:24;100002.41;;;17.80;58.46
71573;BME280;59408;51.032;9.410;2023-05-25T10:19:03;100010.91;;;17.90;59.50
71573;BME280;59408;51.032;9.410;2023-05-25T10:21:30;100010.00;;;17.48;58.82
71573;BME280;59408;51.032;9.410;2023-05-25T10:24:03;100006.72;;;17.42;57.99
71573;BME280;59408;51.032;9.410;2023-05-25T10:26:35;100001.09;;;17.19;59.93
71573;BME280;59408;51.032;9.410;2023-05-25T10:29:03;100010.97;;;17.20;58.98
71573;BME280;59408;51.032;9.410;2023-05-25T10:31:30;100004.41;;;17.44;62.38
71573;BME280;59408;51.032;9.410;2023-05-25T10:33:59;100000.94;;;17.66;59.66
71573;BME280;59408;51.032;9.410;2023-05-25T10:36:26;100008.25;;;18.17;59.87
71573;BME280;59408;51.032;9.410;2023-05-25T10:38:53;100007.81;;;18.15;57.72
71573;BME280;59408;51.032;9.410;2023-05-25T10:41:22;100006.09;;;18.49;56.67
71573;BME280;59408;51.032;9.410;2023-05-25T10:43:48;99997.00;;;18.94;59.86
71573;BME280;59408;51.032;9.410;2023-05-25T10:46:16;99989.97;;;19.52;55.98
71573;BME280;59408;51.032;9.410;2023-05-25T10:48:44;99996.09;;;19.69;55.08
71573;BME280;59408;51.032;9.410;2023-05-25T10:51:11;100006.50;;;19.49;55.54
71573;BME280;59408;51.032;9.410;2023-05-25T10:53:42;99991.50;;;20.17;54.72
71573;BME280;59408;51.032;9.410;2023-05-25T10:56:09;99997.56;;;20.26;50.37
71573;BME280;59408;51.032;9.410;2023-05-25T10:58:40;100001.25;;;20.37;53.29
71573;BME280;59408;51.032;9.410;2023-05-25T11:01:08;100001.09;;;21.11;50.33
71573;BME280;59408;51.032;9.410;2023-05-25T11:03:49;99994.03;;;20.73;48.90
71573;BME280;59408;51.032;9.410;2023-05-25T11:06:20;99993.25;;;21.24;52.82
71573;BME280;59408;51.032;9.410;2023-05-25T11:08:52;99994.13;;;21.38;46.59
71573;BME280;59408;51.032;9.410;2023-05-25T11:11:19;99996.78;;;21.17;49.93
71573;BME280;59408;51.032;9.410;2023-05-25T11:13:48;99987.41;;;21.39;49.74
71573;BME280;59408;51.032;9.410;2023-05-25T11:16:20;99979.19;;;21.68;48.44
71573;BME280;59408;51.032;9.410;2023-05-25T11:18:52;99989.69;;;20.72;50.17
71573;BME280;59408;51.032;9.410;2023-05-25T11:21:39;99989.66;;;21.23;49.60
71573;BME280;59408;51.032;9.410;2023-05-25T11:24:11;99982.34;;;21.63;48.33
71573;BME280;59408;51.032;9.410;2023-05-25T11:26:52;99983.06;;;21.49;48.76
71573;BME280;59408;51.032;9.410;2023-05-25T11:29:21;99981.78;;;21.29;46.79
71573;BME280;59408;51.032;9.410;2023-05-25T11:31:51;99977.56;;;21.60;48.17
71573;BME280;59408;51.032;9.410;2023-05-25T11:34:20;99983.94;;;21.67;47.05
71573;BME280;59408;51.032;9.410;2023-05-25T11:36:47;99979.34;;;22.03;48.45
71573;BME280;59408;51.032;9.410;2023-05-25T11:39:13;99985.13;;;21.63;49.10
71573;BME280;59408;51.032;9.410;2023-05-25T11:41:51;99976.50;;;21.86;47.07
71573;BME280;59408;51.032;9.410;2023-05-25T11:44:26;99975.34;;;21.97;51.48
71573;BME280;59408;51.032;9.410;2023-05-25T11:46:53;99969.84;;;22.26;45.31
71573;BME280;59408;51.032;9.410;2023-05-25T11:49:20;99970.94;;;21.06;46.48
71573;BME280;59408;51.032;9.410;2023-05-25T11:51:47;99969.41;;;21.16;48.84
71573;BME280;59408;51.032;9.410;2023-05-25T11:54:20;99973.22;;;21.62;48.38
71573;BME280;59408;51.032;9.410;2023-05-25T11:56:49;99973.72;;;21.75;48.55
71573;BME280;59408;51.032;9.410;2023-05-25T11:59:16;99974.84;;;21.74;48.36
71573;BME280;59408;51.032;9.410;2023-05-25T12:01:54;99970.63;;;22.01;50.55
71573;BME280;59408;51.032;9.410;2023-05-25T12:04:21;99965.09;;;22.33;46.55
71573;BME280;59408;51.032;9.410;2023-05-25T12:06:49;99965.56;;;22.74;47.35
71573;BME280;59408;51.032;9.410;2023-05-25T12:09:19;99969.09;;;22.89;45.87
71573;BME280;59408;51.032;9.410;2023-05-25T12:11:46;99969.91;;;22.93;45.16
71573;BME280;59408;51.032;9.410;2023-05-25T12:14:13;99965.16;;;22.94;45.38
71573;BME280;59408;51.032;9.410;2023-05-25T12:16:40;99969.00;;;23.42;46.24
71573;BME280;59408;51.032;9.410;2023-05-25T12:19:09;99964.31;;;23.29;47.46
71573;BME280;59408;51.032;9.410;2023-05-25T12:21:36;99971.75;;;21.86;47.09
71573;BME280;59408;51.032;9.410;2023-05-25T12:24:05;99974.28;;;22.55;49.19
71573;BME280;59408;51.032;9.410;2023-05-25T12:26:33;99976.22;;;23.29;45.87
71573;BME280;59408;51.032;9.410;2023-05-25T12:29:01;99978.63;;;22.38;44.21
71573;BME280;59408;51.032;9.410;2023-05-25T12:31:29;99964.34;;;22.82;44.63
71573;BME280;59408;51.032;9.410;2023-05-25T12:34:07;99955.91;;;23.32;47.88
71573;BME280;59408;51.032;9.410;2023-05-25T12:36:39;99955.53;;;23.19;42.91
71573;BME280;59408;51.032;9.410;2023-05-25T12:39:06;99962.72;;;23.06;45.01
71573;BME280;59408;51.032;9.410;2023-05-25T12:41:45;99956.34;;;23.23;44.39
71573;BME280;59408;51.032;9.410;2023-05-25T12:44:20;99960.13;;;23.79;46.25
71573;BME280;59408;51.032;9.410;2023-05-25T12:46:47;99945.97;;;23.35;44.03
71573;BME280;59408;51.032;9.410;2023-05-25T12:49:22;99957.56;;;22.76;42.29
71573;BME280;59408;51.032;9.410;2023-05-25T12:51:50;99953.94;;;23.36;43.96
71573;BME280;59408;51.032;9.410;2023-05-25T12:54:32;99956.94;;;23.77;44.12
71573;BME280;59408;51.032;9.410;2023-05-25T12:56:59;99948.25;;;24.38;43.33
71573;BME280;59408;51.032;9.410;2023-05-25T12:59:25;99943.28;;;24.04;41.93
71573;BME280;59408;51.032;9.410;2023-05-25T13:01:52;99943.22;;;24.15;44.43
71573;BME280;59408;51.032;9.410;2023-05-25T13:04:18;99939.09;;;24.37;42.68